Time;durP1;ratioP1;P1;durP2;ratioP2;P2;SDS_P1;SDS_P2;PMS_P1;PMS_P2;Temp;Humidity;BMP_temperature;BMP_pressure;BME280_temperature;BME280_humidity;BME280_pressure;Samples;Min_cycle;Max_cycle;Signal;HPM_P1;HPM_P2
2023/12/22 00:00:23;;;;;;;42.40;25.45;;;;;;;;;;10253694;28;21305;-52
2023/12/22 00:05:21;;;;;;;71.45;46.10;;;;;;;;;;10255648;28;20869;-56
2023/12/22 00:10:19;;;;;;;45.13;31.02;;;;;;;;;;10253440;28;20509;-53
2023/12/22 00:15:19;;;;;;;30.30;21.23;;;;;;;;;;10253732;28;20051;-54
2023/12/22 00:20:17;;;;;;;45.25;31.20;;;;;;;;;;10254040;28;20063;-54
2023/12/22 00:25:15;;;;;;;44.30;29.50;;;;;;;;;;10253966;28;20044;-50
2023/12/22 00:30:14;;;;;;;23.75;19.00;;;;;;;;;;10262925;28;20716;-52
2023/12/22 00:35:14;;;;;;;30.02;21.92;;;;;;;;;;10266558;28;20048;-52
2023/12/22 00:40:12;;;;;;;28.63;20.23;;;;;;;;;;10259800;28;20048;-51
2023/12/22 00:45:10;;;;;;;35.60;24.20;;;;;;;;;;10253287;28;20040;-55
2023/12/22 00:50:09;;;;;;;28.45;21.92;;;;;;;;;;10252029;28;20059;-52
2023/12/22 00:55:09;;;;;;;38.65;25.73;;;;;;;;;;10250996;28;20040;-53
2023/12/22 01:00:10;;;;;;;21.23;15.15;;;;;;;;;;10252237;28;20050;-53
2023/12/22 01:05:08;;;;;;;17.20;12.60;;;;;;;;;;10250915;28;20048;-51
2023/12/22 01:10:07;;;;;;;15.07;11.73;;;;;;;;;;10250182;28;20052;-52
2023/12/22 01:15:08;;;;;;;12.98;11.32;;;;;;;;;;10252971;28;20647;-51
2023/12/22 01:20:06;;;;;;;9.40;8.38;;;;;;;;;;10250353;28;20054;-52
2023/12/22 01:25:05;;;;;;;9.85;7.55;;;;;;;;;;10251739;28;20639;-54
2023/12/22 01:30:03;;;;;;;7.28;5.95;;;;;;;;;;10253372;28;20052;-53
2023/12/22 01:35:09;;;;;;;13.60;10.45;;;;;;;;;;10252868;28;20066;-49
2023/12/22 01:40:08;;;;;;;9.65;7.15;;;;;;;;;;10249933;28;20054;-52
2023/12/22 01:45:07;;;;;;;14.00;10.05;;;;;;;;;;10251111;28;20044;-50
2023/12/22 01:50:07;;;;;;;11.00;8.20;;;;;;;;;;10251092;28;20449;-53
2023/12/22 01:55:06;;;;;;;12.18;8.93;;;;;;;;;;10250257;28;20055;-51
2023/12/22 02:00:04;;;;;;;9.63;7.07;;;;;;;;;;10249701;28;20036;-52
2023/12/22 02:05:11;;;;;;;10.88;8.27;;;;;;;;;;10251828;28;20052;-54
2023/12/22 02:10:09;;;;;;;11.30;9.20;;;;;;;;;;10249578;28;20047;-53
2023/12/22 02:15:08;;;;;;;9.93;7.43;;;;;;;;;;10248813;28;20032;-53
2023/12/22 02:20:08;;;;;;;9.48;7.75;;;;;;;;;;10248190;28;20054;-54
2023/12/22 02:25:08;;;;;;;10.32;8.27;;;;;;;;;;10250122;28;20056;-49
2023/12/22 02:30:08;;;;;;;9.88;7.28;;;;;;;;;;10255520;28;20862;-53
2023/12/22 02:35:08;;;;;;;9.70;8.20;;;;;;;;;;10256437;28;20539;-52
2023/12/22 02:40:08;;;;;;;12.25;9.18;;;;;;;;;;10256615;28;20468;-50
2023/12/22 02:45:07;;;;;;;16.23;9.80;;;;;;;;;;10257062;28;20062;-52
2023/12/22 02:50:06;;;;;;;17.83;11.98;;;;;;;;;;10257868;28;20052;-53
2023/12/22 02:55:04;;;;;;;18.38;12.18;;;;;;;;;;10257998;28;20062;-54
2023/12/22 03:00:04;;;;;;;17.85;13.63;;;;;;;;;;10257137;28;20044;-50
2023/12/22 03:05:02;;;;;;;76.47;34.88;;;;;;;;;;10254319;28;20040;-52
2023/12/22 03:10:01;;;;;;;114.75;70.55;;;;;;;;;;10256932;28;20065;-50
2023/12/22 03:14:59;;;;;;;95.80;64.15;;;;;;;;;;10256614;28;20054;-52
2023/12/22 03:19:58;;;;;;;51.97;39.65;;;;;;;;;;10257277;28;20424;-51
2023/12/22 03:24:57;;;;;;;33.00;23.80;;;;;;;;;;10257014;28;20043;-51
2023/12/22 03:29:55;;;;;;;10.40;9.25;;;;;;;;;;10256255;28;20169;-49
2023/12/22 03:34:55;;;;;;;27.40;18.92;;;;;;;;;;10254811;28;20093;-53
2023/12/22 03:39:55;;;;;;;45.65;29.83;;;;;;;;;;10256956;28;20052;-54
2023/12/22 03:44:53;;;;;;;33.55;22.88;;;;;;;;;;10257953;28;20910;-52
2023/12/22 03:49:52;;;;;;;24.38;17.42;;;;;;;;;;10256226;28;20585;-53
2023/12/22 03:54:50;;;;;;;25.98;20.67;;;;;;;;;;10255004;28;20047;-55
2023/12/22 03:59:50;;;;;;;27.88;20.27;;;;;;;;;;10254323;28;21254;-53
2023/12/22 04:04:48;;;;;;;17.25;12.65;;;;;;;;;;10251930;28;20048;-52
2023/12/22 04:09:46;;;;;;;23.85;17.55;;;;;;;;;;10252844;28;20044;-52
2023/12/22 04:14:44;;;;;;;16.70;13.50;;;;;;;;;;10254334;28;20425;-52
2023/12/22 04:19:44;;;;;;;15.70;12.15;;;;;;;;;;10250219;28;20050;-53
2023/12/22 04:24:42;;;;;;;12.00;10.43;;;;;;;;;;10253682;28;20048;-51
2023/12/22 04:29:40;;;;;;;15.73;12.48;;;;;;;;;;10253430;28;20298;-53
2023/12/22 04:34:39;;;;;;;19.33;12.25;;;;;;;;;;10254578;28;20051;-55
2023/12/22 04:39:38;;;;;;;14.40;11.10;;;;;;;;;;10251597;28;20054;-53
2023/12/22 04:44:36;;;;;;;13.48;10.93;;;;;;;;;;10252836;28;20044;-52
2023/12/22 04:49:35;;;;;;;7.65;6.85;;;;;;;;;;10250658;28;20934;-54
2023/12/22 04:54:33;;;;;;;8.30;7.05;;;;;;;;;;10253059;28;20048;-53
2023/12/22 04:59:33;;;;;;;7.90;6.28;;;;;;;;;;10252148;28;20056;-55
2023/12/22 05:04:31;;;;;;;6.95;6.25;;;;;;;;;;10254298;28;20067;-52
2023/12/22 05:09:29;;;;;;;6.63;5.93;;;;;;;;;;10254753;28;20039;-49
2023/12/22 05:14:27;;;;;;;8.65;6.13;;;;;;;;;;10274244;28;20513;-50
2023/12/22 05:19:27;;;;;;;9.65;7.95;;;;;;;;;;10300409;28;20447;-52
2023/12/22 05:24:25;;;;;;;9.48;6.65;;;;;;;;;;10303926;28;20132;-53
2023/12/22 05:29:23;;;;;;;10.23;7.28;;;;;;;;;;10299235;28;20067;-52
2023/12/22 05:34:22;;;;;;;7.70;6.90;;;;;;;;;;10292561;28;20131;-54
2023/12/22 05:39:21;;;;;;;12.20;9.43;;;;;;;;;;10295428;28;20115;-51
2023/12/22 05:44:20;;;;;;;13.07;9.35;;;;;;;;;;10280708;28;20477;-51
2023/12/22 05:49:18;;;;;;;10.43;6.68;;;;;;;;;;10276597;28;20505;-49
2023/12/22 05:54:16;;;;;;;20.45;12.15;;;;;;;;;;10283634;28;20627;-54
2023/12/22 05:59:16;;;;;;;14.25;10.75;;;;;;;;;;10280670;28;20079;-52
2023/12/22 06:04:15;;;;;;;16.85;12.93;;;;;;;;;;10285337;28;20067;-53
2023/12/22 06:09:13;;;;;;;15.05;10.82;;;;;;;;;;10286307;28;20079;-53
2023/12/22 06:14:11;;;;;;;16.92;9.10;;;;;;;;;;10292414;28;20072;-52
2023/12/22 06:19:12;;;;;;;11.10;8.57;;;;;;;;;;10293076;28;20083;-52
2023/12/22 06:24:11;;;;;;;8.10;7.05;;;;;;;;;;10294445;28;20076;-52
2023/12/22 06:29:10;;;;;;;12.07;9.50;;;;;;;;;;10289833;28;20060;-54
2023/12/22 06:34:08;;;;;;;16.83;9.90;;;;;;;;;;10294064;28;20087;-53
2023/12/22 06:39:08;;;;;;;11.07;8.20;;;;;;;;;;10289675;28;20467;-52
2023/12/22 06:44:06;;;;;;;8.63;6.72;;;;;;;;;;10292729;28;20084;-53
2023/12/22 06:49:05;;;;;;;29.75;12.13;;;;;;;;;;10293277;28;20064;-52
2023/12/22 06:54:05;;;;;;;11.75;7.28;;;;;;;;;;10296460;28;20080;-55
2023/12/22 06:59:05;;;;;;;12.65;8.18;;;;;;;;;;10297953;28;20083;-53
2023/12/22 07:04:04;;;;;;;16.75;11.77;;;;;;;;;;10292970;28;20072;-53
2023/12/22 07:09:21;;;;;;;11.07;7.45;;;;;;;;;;10290853;28;20069;-49
2023/12/22 07:14:20;;;;;;;15.32;10.93;;;;;;;;;;10292725;28;20065;-53
2023/12/22 07:19:20;;;;;;;17.38;11.63;;;;;;;;;;10284589;28;20064;-54
2023/12/22 07:24:19;;;;;;;24.83;16.63;;;;;;;;;;10283676;28;20083;-52
2023/12/22 07:29:17;;;;;;;24.20;14.93;;;;;;;;;;10289339;28;20072;-53
2023/12/22 07:34:18;;;;;;;23.13;15.48;;;;;;;;;;10291906;28;20079;-53
2023/12/22 07:39:18;;;;;;;11.93;8.88;;;;;;;;;;10286935;28;20076;-51
2023/12/22 07:44:16;;;;;;;17.48;12.95;;;;;;;;;;10290382;28;20103;-50
2023/12/22 07:49:15;;;;;;;18.88;14.30;;;;;;;;;;10289637;28;20072;-51
2023/12/22 07:54:15;;;;;;;9.38;8.38;;;;;;;;;;10283815;28;20071;-54
2023/12/22 07:59:15;;;;;;;11.38;9.68;;;;;;;;;;10291644;28;20522;-53
2023/12/22 08:04:27;;;;;;;6.55;5.85;;;;;;;;;;10282107;28;20065;-53
2023/12/22 08:09:27;;;;;;;8.35;4.97;;;;;;;;;;10289350;28;20065;-52
2023/12/22 08:14:25;;;;;;;9.60;7.57;;;;;;;;;;10286890;28;20076;-54
2023/12/22 08:19:24;;;;;;;7.93;7.00;;;;;;;;;;10289369;28;20079;-54
2023/12/22 08:24:27;;;;;;;6.60;4.90;;;;;;;;;;10289021;28;20091;-54
2023/12/22 08:29:26;;;;;;;6.22;5.63;;;;;;;;;;10282239;28;20184;-54
2023/12/22 08:34:24;;;;;;;9.82;7.20;;;;;;;;;;10284796;28;20080;-53
2023/12/22 08:39:24;;;;;;;7.40;6.53;;;;;;;;;;10288078;28;20069;-53
2023/12/22 08:44:24;;;;;;;6.13;5.47;;;;;;;;;;10286547;28;20068;-53
2023/12/22 08:49:23;;;;;;;17.75;12.05;;;;;;;;;;10291193;28;20075;-49
2023/12/22 08:54:22;;;;;;;7.15;5.88;;;;;;;;;;10289260;28;20451;-53
2023/12/22 08:59:20;;;;;;;6.15;4.93;;;;;;;;;;10286103;28;20075;-54
2023/12/22 09:04:22;;;;;;;5.13;4.63;;;;;;;;;;10288807;28;20096;-53
2023/12/22 09:09:21;;;;;;;11.90;4.82;;;;;;;;;;10288263;28;20075;-53
2023/12/22 09:14:20;;;;;;;5.75;5.20;;;;;;;;;;10287117;28;20076;-50
2023/12/22 09:19:21;;;;;;;17.52;6.95;;;;;;;;;;10280000;28;20072;-51
2023/12/22 09:24:20;;;;;;;7.68;5.53;;;;;;;;;;10282511;28;20073;-52
2023/12/22 09:29:18;;;;;;;6.18;5.03;;;;;;;;;;10288037;28;20061;-51
2023/12/22 09:34:16;;;;;;;7.70;6.18;;;;;;;;;;10286878;28;20095;-52
2023/12/22 09:39:16;;;;;;;8.20;6.80;;;;;;;;;;10286248;28;20098;-52
2023/12/22 09:44:15;;;;;;;8.43;6.53;;;;;;;;;;10288168;28;20069;-52
2023/12/22 09:49:14;;;;;;;13.25;7.13;;;;;;;;;;10281691;28;20064;-52
2023/12/22 09:54:12;;;;;;;13.57;8.50;;;;;;;;;;10285156;28;20068;-51
2023/12/22 09:59:14;;;;;;;10.65;7.20;;;;;;;;;;10286969;28;20064;-52
2023/12/22 10:04:13;;;;;;;18.73;7.13;;;;;;;;;;10286372;28;20491;-54
2023/12/22 10:09:14;;;;;;;14.55;9.45;;;;;;;;;;10285254;28;20065;-53
2023/12/22 10:14:20;;;;;;;14.00;8.98;;;;;;;;;;10284423;28;20463;-53
2023/12/22 10:19:18;;;;;;;13.27;6.97;;;;;;;;;;10278149;28;20627;-53
2023/12/22 10:24:37;;;;;;;7.45;6.22;;;;;;;;;;10283036;28;20068;-54
2023/12/22 10:29:37;;;;;;;11.50;6.57;;;;;;;;;;10281922;28;20095;-52
2023/12/22 10:34:35;;;;;;;7.93;6.60;;;;;;;;;;10283895;28;20160;-53
2023/12/22 10:39:36;;;;;;;13.77;10.77;;;;;;;;;;10286601;28;20069;-53
2023/12/22 10:44:35;;;;;;;12.48;9.27;;;;;;;;;;10286449;28;20076;-52
2023/12/22 10:49:34;;;;;;;13.25;8.63;;;;;;;;;;10289382;28;20099;-52
2023/12/22 10:54:33;;;;;;;10.30;8.13;;;;;;;;;;10292114;28;20502;-53
2023/12/22 10:59:31;;;;;;;12.18;8.80;;;;;;;;;;10290317;28;20076;-51
2023/12/22 11:04:36;;;;;;;14.43;10.77;;;;;;;;;;10291682;28;20072;-54
2023/12/22 11:09:36;;;;;;;12.68;9.00;;;;;;;;;;10292369;28;20080;-54
2023/12/22 11:14:35;;;;;;;11.30;9.93;;;;;;;;;;10293667;28;20064;-52
2023/12/22 11:19:36;;;;;;;12.00;10.13;;;;;;;;;;10291671;28;20087;-53
2023/12/22 11:24:35;;;;;;;10.52;8.93;;;;;;;;;;10290752;28;20079;-53
2023/12/22 11:29:34;;;;;;;10.80;9.68;;;;;;;;;;10287339;28;20072;-53
2023/12/22 11:34:33;;;;;;;14.15;9.45;;;;;;;;;;10283702;28;20080;-50
2023/12/22 11:39:33;;;;;;;16.60;10.88;;;;;;;;;;10286422;28;20077;-53
2023/12/22 11:44:31;;;;;;;11.25;9.40;;;;;;;;;;10286566;28;20095;-53
2023/12/22 11:49:33;;;;;;;11.82;9.32;;;;;;;;;;10285163;28;20065;-53
2023/12/22 11:54:49;;;;;;;11.70;10.23;;;;;;;;;;10291075;28;20072;-53
2023/12/22 11:59:47;;;;;;;17.65;10.68;;;;;;;;;;10291750;28;20661;-53
2023/12/22 12:04:48;;;;;;;10.82;9.30;;;;;;;;;;10291828;28;20095;-53
2023/12/22 12:09:48;;;;;;;8.23;7.38;;;;;;;;;;10281351;28;20084;-53
2023/12/22 12:14:49;;;;;;;8.57;7.18;;;;;;;;;;10288922;28;20067;-55
2023/12/22 12:19:48;;;;;;;8.38;7.43;;;;;;;;;;10290681;28;20482;-53
2023/12/22 12:24:48;;;;;;;8.88;7.97;;;;;;;;;;10289583;28;20084;-54
2023/12/22 12:29:46;;;;;;;10.77;9.60;;;;;;;;;;10289852;28;20061;-49
2023/12/22 12:34:45;;;;;;;9.65;6.97;;;;;;;;;;10287329;28;20072;-51
2023/12/22 12:39:44;;;;;;;14.90;11.20;;;;;;;;;;10289350;28;20068;-52
2023/12/22 12:44:43;;;;;;;9.93;8.25;;;;;;;;;;10289259;28;20091;-52
2023/12/22 12:49:42;;;;;;;10.20;7.95;;;;;;;;;;10284968;28;20126;-53
2023/12/22 12:54:40;;;;;;;16.17;12.35;;;;;;;;;;10289071;28;20519;-52
2023/12/22 12:59:39;;;;;;;15.07;10.50;;;;;;;;;;10289166;28;20502;-51
2023/12/22 13:04:38;;;;;;;15.32;10.20;;;;;;;;;;10286697;28;20084;-53
2023/12/22 13:09:37;;;;;;;9.43;7.30;;;;;;;;;;10287490;28;20110;-51
2023/12/22 13:14:35;;;;;;;9.57;7.22;;;;;;;;;;10289744;28;20076;-50
2023/12/22 13:19:34;;;;;;;11.75;9.05;;;;;;;;;;10287137;28;20103;-49
2023/12/22 13:24:34;;;;;;;5.65;5.05;;;;;;;;;;10287747;28;20080;-54
2023/12/22 13:29:42;;;;;;;6.50;5.43;;;;;;;;;;10287787;28;20076;-50
2023/12/22 13:34:47;;;;;;;6.43;3.92;;;;;;;;;;10282955;28;20088;-55
2023/12/22 13:39:47;;;;;;;9.02;6.10;;;;;;;;;;10284878;28;20077;-54
2023/12/22 13:44:46;;;;;;;9.35;6.70;;;;;;;;;;10287170;28;20076;-54
2023/12/22 13:49:45;;;;;;;10.15;7.88;;;;;;;;;;10287178;28;20107;-52
2023/12/22 13:54:44;;;;;;;4.55;4.10;;;;;;;;;;10286399;28;20498;-52
2023/12/22 13:59:43;;;;;;;5.75;5.03;;;;;;;;;;10285830;28;20087;-51
2023/12/22 14:04:42;;;;;;;6.15;5.25;;;;;;;;;;10285739;28;20098;-50
2023/12/22 14:09:40;;;;;;;4.97;3.92;;;;;;;;;;10284835;28;20065;-52
2023/12/22 14:14:38;;;;;;;14.40;12.15;;;;;;;;;;10287899;28;20064;-52
2023/12/22 14:19:38;;;;;;;7.25;6.28;;;;;;;;;;10286398;28;20083;-50
2023/12/22 14:24:36;;;;;;;17.98;12.65;;;;;;;;;;10284540;28;20072;-50
2023/12/22 14:29:40;;;;;;;15.68;11.98;;;;;;;;;;10293539;28;20073;-53
2023/12/22 14:34:39;;;;;;;9.35;7.93;;;;;;;;;;10288647;28;20100;-49
2023/12/22 14:39:38;;;;;;;10.63;6.05;;;;;;;;;;10293991;28;20068;-50
2023/12/22 14:44:36;;;;;;;9.57;8.63;;;;;;;;;;10290587;28;20072;-49
2023/12/22 14:49:34;;;;;;;7.22;6.47;;;;;;;;;;10294328;28;20069;-49
2023/12/22 14:54:34;;;;;;;12.88;6.15;;;;;;;;;;10292673;28;20090;-52
2023/12/22 14:59:32;;;;;;;16.20;9.82;;;;;;;;;;10290340;28;20084;-51
2023/12/22 15:04:32;;;;;;;7.80;6.00;;;;;;;;;;10291203;28;20040;-51
2023/12/22 15:09:30;;;;;;;15.48;11.30;;;;;;;;;;10291824;28;20068;-51
2023/12/22 15:14:30;;;;;;;15.45;11.30;;;;;;;;;;10290985;28;20186;-53
2023/12/22 15:19:28;;;;;;;15.50;10.35;;;;;;;;;;10291937;28;20076;-52
2023/12/22 15:24:28;;;;;;;12.15;8.15;;;;;;;;;;10293717;28;20065;-53
2023/12/22 15:29:27;;;;;;;15.73;8.10;;;;;;;;;;10291479;28;20075;-52
2023/12/22 15:34:26;;;;;;;9.88;6.90;;;;;;;;;;10288373;28;20095;-55
2023/12/22 15:39:25;;;;;;;10.30;7.43;;;;;;;;;;10287303;28;20466;-49
2023/12/22 15:44:23;;;;;;;12.07;6.78;;;;;;;;;;10292314;28;20513;-50
2023/12/22 15:49:21;;;;;;;32.80;18.05;;;;;;;;;;10288735;28;20068;-52
2023/12/22 15:54:21;;;;;;;19.60;14.40;;;;;;;;;;10289113;28;20080;-54
2023/12/22 15:59:19;;;;;;;14.80;11.90;;;;;;;;;;10285584;28;20608;-50
2023/12/22 16:04:18;;;;;;;7.78;6.70;;;;;;;;;;10285954;28;20068;-51
2023/12/22 16:09:16;;;;;;;9.23;5.93;;;;;;;;;;10289013;28;20069;-51
2023/12/22 16:14:15;;;;;;;6.20;4.90;;;;;;;;;;10284259;28;20079;-54
2023/12/22 16:19:14;;;;;;;8.50;5.35;;;;;;;;;;10285945;28;20069;-54
2023/12/22 16:24:12;;;;;;;10.95;7.53;;;;;;;;;;10288853;28;20064;-52
2023/12/22 16:29:11;;;;;;;5.78;5.18;;;;;;;;;;10286895;28;20080;-54
2023/12/22 16:34:11;;;;;;;21.95;13.68;;;;;;;;;;10280829;28;20463;-54
2023/12/22 16:39:10;;;;;;;8.93;6.07;;;;;;;;;;10274523;28;20154;-55
2023/12/22 16:44:08;;;;;;;6.78;4.90;;;;;;;;;;10283976;28;20454;-53
2023/12/22 16:49:06;;;;;;;10.90;6.55;;;;;;;;;;10276395;28;20060;-53
2023/12/22 16:54:06;;;;;;;12.98;6.38;;;;;;;;;;10278537;28;20071;-53
2023/12/22 16:59:04;;;;;;;14.25;10.35;;;;;;;;;;10279986;28;20076;-51
2023/12/22 17:04:03;;;;;;;16.92;12.40;;;;;;;;;;10278938;28;20081;-47
2023/12/22 17:09:01;;;;;;;56.50;31.00;;;;;;;;;;10284075;28;20463;-53
2023/12/22 17:14:01;;;;;;;9.38;7.72;;;;;;;;;;10284274;28;20064;-51
2023/12/22 17:19:00;;;;;;;19.27;15.50;;;;;;;;;;10289454;28;20144;-52
2023/12/22 17:23:58;;;;;;;10.65;7.13;;;;;;;;;;10284100;28;20064;-53
2023/12/22 17:28:56;;;;;;;10.18;8.30;;;;;;;;;;10286823;28;20079;-53
2023/12/22 17:33:57;;;;;;;10.15;8.82;;;;;;;;;;10287410;28;20462;-52
2023/12/22 17:38:56;;;;;;;14.73;11.30;;;;;;;;;;10294669;28;20486;-54
2023/12/22 17:43:54;;;;;;;13.93;10.20;;;;;;;;;;10286130;28;20091;-53
2023/12/22 17:48:52;;;;;;;9.48;6.40;;;;;;;;;;10288453;28;20494;-50
2023/12/22 17:53:52;;;;;;;10.50;6.35;;;;;;;;;;10287590;28;20091;-50
2023/12/22 17:58:50;;;;;;;13.05;8.25;;;;;;;;;;10282666;28;20092;-50
2023/12/22 18:03:53;;;;;;;9.35;6.53;;;;;;;;;;10296454;28;20059;-52
2023/12/22 18:08:53;;;;;;;6.63;4.88;;;;;;;;;;10294883;28;20064;-52
2023/12/22 18:13:52;;;;;;;6.45;5.05;;;;;;;;;;10292327;28;20564;-53
2023/12/22 18:18:51;;;;;;;14.07;8.93;;;;;;;;;;10293234;28;20079;-52
2023/12/22 18:23:49;;;;;;;10.10;6.82;;;;;;;;;;10293408;28;20056;-47
2023/12/22 18:28:49;;;;;;;7.60;5.03;;;;;;;;;;10292623;28;20130;-52
2023/12/22 18:33:47;;;;;;;11.25;5.93;;;;;;;;;;10293685;28;20084;-52
2023/12/22 18:38:46;;;;;;;14.07;10.02;;;;;;;;;;10291918;28;20072;-52
2023/12/22 18:43:44;;;;;;;10.57;7.43;;;;;;;;;;10290253;28;20139;-52
2023/12/22 18:48:44;;;;;;;8.73;6.95;;;;;;;;;;10292529;28;20076;-48
2023/12/22 18:53:42;;;;;;;6.88;5.05;;;;;;;;;;10292100;28;20450;-51
2023/12/22 18:58:40;;;;;;;6.85;4.18;;;;;;;;;;10293748;28;20501;-54
2023/12/22 19:03:39;;;;;;;7.72;6.20;;;;;;;;;;10293164;28;20076;-53
2023/12/22 19:08:38;;;;;;;6.30;5.65;;;;;;;;;;10291082;28;20087;-55
2023/12/22 19:13:36;;;;;;;6.45;5.82;;;;;;;;;;10291725;28;20072;-52
2023/12/22 19:18:35;;;;;;;7.75;5.82;;;;;;;;;;10291249;28;20068;-53
2023/12/22 19:23:34;;;;;;;5.78;4.40;;;;;;;;;;10288469;28;20072;-54
2023/12/22 19:28:34;;;;;;;9.10;6.07;;;;;;;;;;10286951;28;20502;-54
2023/12/22 19:33:32;;;;;;;6.28;5.43;;;;;;;;;;10289933;28;20099;-53
2023/12/22 19:38:30;;;;;;;5.65;4.70;;;;;;;;;;10294699;28;20072;-56
2023/12/22 19:43:29;;;;;;;6.05;4.95;;;;;;;;;;10286810;28;20068;-53
2023/12/22 19:48:28;;;;;;;6.38;4.22;;;;;;;;;;10289729;28;20076;-51
2023/12/22 19:53:27;;;;;;;4.63;4.05;;;;;;;;;;10287504;28;20166;-50
2023/12/22 19:58:25;;;;;;;7.28;5.60;;;;;;;;;;10290222;28;20467;-54
2023/12/22 20:03:24;;;;;;;8.68;6.65;;;;;;;;;;10283741;28;20087;-52
2023/12/22 20:08:25;;;;;;;8.32;5.68;;;;;;;;;;10286229;28;20075;-52
2023/12/22 20:13:24;;;;;;;5.15;4.47;;;;;;;;;;10284878;28;20190;-54
2023/12/22 20:18:22;;;;;;;5.93;4.30;;;;;;;;;;10287233;28;20076;-52
2023/12/22 20:23:21;;;;;;;8.55;4.47;;;;;;;;;;10289938;28;20459;-54
2023/12/22 20:28:21;;;;;;;7.18;5.38;;;;;;;;;;10290157;28;20076;-54
2023/12/22 20:33:19;;;;;;;6.07;4.80;;;;;;;;;;10286085;28;20083;-54
2023/12/22 20:38:17;;;;;;;8.05;6.03;;;;;;;;;;10290422;28;20076;-53
2023/12/22 20:43:16;;;;;;;6.47;4.55;;;;;;;;;;10288059;28;20076;-52
2023/12/22 20:48:15;;;;;;;7.03;5.65;;;;;;;;;;10287421;28;20532;-51
2023/12/22 20:53:14;;;;;;;11.82;8.18;;;;;;;;;;10288898;28;20079;-50
2023/12/22 20:58:12;;;;;;;6.38;4.03;;;;;;;;;;10287367;28;20060;-54
2023/12/22 21:03:11;;;;;;;6.03;4.93;;;;;;;;;;10292662;28;20452;-51
2023/12/22 21:08:10;;;;;;;4.55;3.60;;;;;;;;;;10290484;28;20072;-50
2023/12/22 21:13:09;;;;;;;6.78;4.60;;;;;;;;;;10282710;28;20068;-53
2023/12/22 21:18:09;;;;;;;8.23;5.00;;;;;;;;;;10287633;28;20903;-52
2023/12/22 21:23:08;;;;;;;7.85;5.32;;;;;;;;;;10289246;28;20084;-51
2023/12/22 21:28:14;;;;;;;6.93;4.90;;;;;;;;;;10288113;28;20072;-55
2023/12/22 21:33:13;;;;;;;7.47;5.35;;;;;;;;;;10283953;28;20076;-51
2023/12/22 21:38:11;;;;;;;9.50;7.65;;;;;;;;;;10290906;28;20091;-51
2023/12/22 21:43:09;;;;;;;7.40;5.22;;;;;;;;;;10284556;28;20060;-48
2023/12/22 21:48:09;;;;;;;8.05;5.65;;;;;;;;;;10289331;28;20076;-54
2023/12/22 21:53:09;;;;;;;16.13;10.60;;;;;;;;;;10286838;28;20072;-53
2023/12/22 21:58:07;;;;;;;13.07;8.48;;;;;;;;;;10291225;28;20083;-52
2023/12/22 22:03:06;;;;;;;7.53;6.10;;;;;;;;;;10282858;28;20528;-53
2023/12/22 22:08:06;;;;;;;17.55;11.38;;;;;;;;;;10286405;28;20474;-53
2023/12/22 22:13:04;;;;;;;12.43;9.02;;;;;;;;;;10285970;28;20072;-53
2023/12/22 22:18:03;;;;;;;11.18;8.43;;;;;;;;;;10285849;28;20052;-53
2023/12/22 22:23:01;;;;;;;9.20;6.47;;;;;;;;;;10285576;28;20080;-52
2023/12/22 22:28:01;;;;;;;9.35;5.18;;;;;;;;;;10287550;28;20079;-54
2023/12/22 22:32:59;;;;;;;6.75;5.03;;;;;;;;;;10285004;28;20497;-52
2023/12/22 22:37:57;;;;;;;6.68;4.95;;;;;;;;;;10285226;28;20080;-52
2023/12/22 22:42:55;;;;;;;5.72;4.38;;;;;;;;;;10280541;28;20065;-52
2023/12/22 22:47:55;;;;;;;8.02;5.65;;;;;;;;;;10291763;28;20075;-53
2023/12/22 22:52:53;;;;;;;5.15;4.05;;;;;;;;;;10292761;28;20075;-52
2023/12/22 22:57:51;;;;;;;4.60;3.72;;;;;;;;;;10292715;28;20539;-52
2023/12/22 23:02:51;;;;;;;11.98;8.23;;;;;;;;;;10290279;28;20065;-51
2023/12/22 23:07:50;;;;;;;11.75;7.18;;;;;;;;;;10291947;28;20084;-52
2023/12/22 23:12:49;;;;;;;6.70;4.85;;;;;;;;;;10292352;28;20079;-51
2023/12/22 23:17:48;;;;;;;5.43;3.67;;;;;;;;;;10292005;28;20113;-52
2023/12/22 23:22:46;;;;;;;6.72;3.90;;;;;;;;;;10292430;28;20072;-53
2023/12/22 23:27:46;;;;;;;4.55;3.47;;;;;;;;;;10291805;28;20079;-54
2023/12/22 23:32:45;;;;;;;4.50;3.22;;;;;;;;;;10290543;28;20268;-51
2023/12/22 23:37:44;;;;;;;3.47;3.17;;;;;;;;;;10290539;28;20064;-51
2023/12/22 23:42:42;;;;;;;4.50;3.72;;;;;;;;;;10290685;28;20064;-53
2023/12/22 23:47:42;;;;;;;6.15;4.75;;;;;;;;;;10290552;28;20073;-54
2023/12/22 23:52:40;;;;;;;4.38;3.50;;;;;;;;;;10287136;28;20068;-52
2023/12/22 23:57:39;;;;;;;6.43;4.30;;;;;;;;;;10290194;28;20069;-52
